Time;durP1;ratioP1;P1;durP2;ratioP2;P2;SDS_P1;SDS_P2;PMS_P1;PMS_P2;Temp;Humidity;BMP_temperature;BMP_pressure;BME280_temperature;BME280_humidity;BME280_pressure;Samples;Min_cycle;Max_cycle;Signal;HPM_P1;HPM_P2
2022/12/24 00:00:58;;;;;;;43.50;25.20;;;;;;;6.12;90.96;99507.19;108817;1273;37061;-74
2022/12/24 00:03:32;;;;;;;48.70;26.50;;;;;;;6.12;90.87;99505.77;108827;1273;38315;-74
2022/12/24 00:06:10;;;;;;;52.30;29.10;;;;;;;6.18;91.39;99502.80;108838;1254;37315;-72
2022/12/24 00:08:46;;;;;;;52.80;29.50;;;;;;;6.22;91.39;99504.25;108822;1262;36453;-73
2022/12/24 00:11:21;;;;;;;51.80;28.10;;;;;;;6.20;91.17;99507.06;108856;1271;37104;-75
2022/12/24 00:13:57;;;;;;;48.40;26.90;;;;;;;6.17;90.82;99506.13;108824;1256;37401;-76
2022/12/24 00:16:32;;;;;;;61.00;31.50;;;;;;;6.20;91.11;99502.04;108795;1268;37575;-76
2022/12/24 00:19:08;;;;;;;60.60;31.90;;;;;;;6.20;91.09;99504.83;108814;1273;37433;-74
2022/12/24 00:21:46;;;;;;;59.60;30.40;;;;;;;6.17;91.30;99496.59;108837;1256;37093;-74
2022/12/24 00:24:20;;;;;;;60.70;29.90;;;;;;;6.16;91.03;99493.86;108841;1254;37092;-75
2022/12/24 00:26:56;;;;;;;58.80;29.40;;;;;;;6.16;91.02;99495.44;108837;1273;36770;-76
2022/12/24 00:29:32;;;;;;;54.00;30.40;;;;;;;6.14;90.92;99501.71;108746;1256;37356;-76
2022/12/24 00:32:09;;;;;;;53.90;29.90;;;;;;;6.15;91.14;99505.13;108822;1250;38272;-76
2022/12/24 00:34:43;;;;;;;60.00;30.50;;;;;;;6.17;91.24;99505.44;108856;1271;37018;-75
2022/12/24 00:37:19;;;;;;;59.60;30.00;;;;;;;6.17;91.41;99508.23;108848;1250;36775;-74
2022/12/24 00:39:55;;;;;;;54.50;29.10;;;;;;;6.14;91.20;99503.46;108880;1273;37221;-75
2022/12/24 00:42:29;;;;;;;48.40;26.50;;;;;;;6.10;90.95;99504.27;108657;1256;174816;-75
2022/12/24 00:45:03;;;;;;;47.20;27.00;;;;;;;6.06;90.84;99506.67;108772;1263;37703;-75
2022/12/24 00:47:38;;;;;;;50.20;26.40;;;;;;;6.03;90.76;99509.19;108836;1273;37026;-75
2022/12/24 00:50:14;;;;;;;46.00;26.60;;;;;;;6.00;90.94;99503.58;108817;1266;37008;-72
2022/12/24 00:52:48;;;;;;;60.40;31.10;;;;;;;6.00;91.19;99502.18;108798;1256;37278;-74
2022/12/24 00:55:22;;;;;;;49.40;27.20;;;;;;;6.01;91.27;99507.20;108813;1256;36960;-73
2022/12/24 00:57:56;;;;;;;56.40;28.70;;;;;;;6.02;91.47;99507.70;108745;1273;39116;-72
2022/12/24 01:00:30;;;;;;;53.40;28.40;;;;;;;6.05;91.62;99496.48;108694;1249;174832;-71
2022/12/24 01:03:05;;;;;;;52.90;28.40;;;;;;;6.08;91.65;99496.91;108799;1258;37153;-72
2022/12/24 01:05:39;;;;;;;52.60;29.10;;;;;;;6.07;91.17;99494.68;108857;1261;37295;-74
2022/12/24 01:08:17;;;;;;;53.60;28.40;;;;;;;6.10;91.70;99485.08;108861;1255;36219;-73
2022/12/24 01:10:54;;;;;;;48.70;26.30;;;;;;;6.11;91.41;99482.79;108752;1263;37498;-75
2022/12/24 01:13:28;;;;;;;48.00;27.90;;;;;;;6.08;91.13;99479.05;108820;1253;37417;-76
2022/12/24 01:16:05;;;;;;;49.30;28.80;;;;;;;6.06;91.22;99483.98;108847;1270;36948;-74
2022/12/24 01:18:41;;;;;;;52.70;29.90;;;;;;;6.02;90.95;99497.28;108823;1273;37026;-76
2022/12/24 01:21:20;;;;;;;53.70;29.90;;;;;;;6.03;91.44;99505.22;108810;1268;37169;-74
2022/12/24 01:23:56;;;;;;;51.10;29.40;;;;;;;6.08;91.68;99506.92;108792;1263;36557;-75
2022/12/24 01:26:31;;;;;;;52.10;28.40;;;;;;;6.08;91.47;99501.76;108830;1262;36234;-73
2022/12/24 01:29:05;;;;;;;49.30;28.20;;;;;;;6.08;91.45;99500.71;108841;1258;37441;-73
2022/12/24 01:31:40;;;;;;;46.90;26.80;;;;;;;6.09;91.15;99501.54;108809;1271;37139;-73
2022/12/24 01:34:18;;;;;;;56.60;30.00;;;;;;;6.11;91.15;99502.36;108809;1255;37089;-75
2022/12/24 01:36:53;;;;;;;66.60;32.90;;;;;;;6.11;91.33;99503.73;108800;1253;37243;-75
2022/12/24 01:39:27;;;;;;;56.10;29.60;;;;;;;6.09;91.20;99500.16;108819;1262;38677;-74
2022/12/24 01:44:55;;;;;;;55.50;29.20;;;;;;;6.05;91.34;99503.93;108324;1255;609501;-74
2022/12/24 01:47:30;;;;;;;55.40;29.60;;;;;;;6.06;91.35;99505.46;108800;1256;37071;-74
2022/12/24 01:50:12;;;;;;;59.40;29.60;;;;;;;6.06;91.39;99511.88;108802;1255;38226;-74
2022/12/24 01:52:47;;;;;;;60.10;31.10;;;;;;;6.04;91.25;99511.24;108797;1256;36798;-74
2022/12/24 01:55:23;;;;;;;68.70;31.40;;;;;;;6.03;91.24;99510.79;108793;1255;37424;-73
2022/12/24 01:57:59;;;;;;;62.30;30.90;;;;;;;6.02;91.74;99514.94;108844;1271;37327;-75
2022/12/24 02:00:33;;;;;;;60.00;29.60;;;;;;;6.04;91.51;99522.52;108843;1250;37110;-74
2022/12/24 02:03:07;;;;;;;53.20;26.90;;;;;;;6.04;91.38;99521.27;108670;1250;174832;-74
2022/12/24 02:05:45;;;;;;;51.30;27.40;;;;;;;6.04;91.48;99517.81;108757;1262;36898;-76
2022/12/24 02:08:19;;;;;;;63.20;29.30;;;;;;;6.06;91.56;99517.95;108825;1273;38545;-74
2022/12/24 02:10:54;;;;;;;77.60;32.10;;;;;;;6.07;91.61;99518.92;108814;1262;37019;-73
2022/12/24 02:13:29;;;;;;;61.50;30.00;;;;;;;6.05;91.60;99513.98;108789;1250;36979;-75
2022/12/24 02:16:10;;;;;;;59.40;30.10;;;;;;;6.05;91.41;99507.41;108775;1273;37342;-73
2022/12/24 02:18:49;;;;;;;54.50;28.10;;;;;;;6.04;91.47;99506.56;108824;1261;37077;-73
2022/12/24 02:21:54;;;;;;;65.60;30.90;;;;;;;6.05;91.86;99504.62;108830;1273;36968;-75
2022/12/24 02:25:01;;;;;;;67.50;30.80;;;;;;;6.07;91.68;99506.80;108820;1256;36218;-74
2022/12/24 02:27:45;;;;;;;58.00;29.80;;;;;;;6.06;91.79;99504.24;108807;1256;37001;-74
2022/12/24 02:30:24;;;;;;;61.00;28.80;;;;;;;6.08;91.87;99504.02;108797;1256;38498;-77
2022/12/24 02:33:24;;;;;;;56.70;28.30;;;;;;;6.04;91.49;99508.48;108790;1273;37444;-76
2022/12/24 02:36:01;;;;;;;57.30;29.40;;;;;;;6.01;91.56;99508.58;108828;1255;37094;-74
2022/12/24 02:38:37;;;;;;;52.60;28.90;;;;;;;6.04;91.72;99509.52;108813;1273;37014;-76
2022/12/24 02:41:20;;;;;;;66.00;30.60;;;;;;;6.05;91.78;99504.45;108739;1261;36267;-75
2022/12/24 02:43:56;;;;;;;53.60;29.00;;;;;;;6.06;91.87;99505.13;108851;1261;39095;-75
2022/12/24 02:46:31;;;;;;;52.30;27.60;;;;;;;6.04;91.73;99501.36;108860;1273;36048;-74
2022/12/24 02:49:05;;;;;;;52.80;27.10;;;;;;;6.01;91.62;99500.42;108844;1273;36769;-75
2022/12/24 02:51:39;;;;;;;57.00;30.00;;;;;;;6.05;92.06;99501.16;108797;1255;37193;-74
2022/12/24 02:54:14;;;;;;;54.00;30.00;;;;;;;6.07;91.87;99503.88;108811;1273;37218;-74
2022/12/24 02:56:59;;;;;;;54.30;29.20;;;;;;;6.05;91.80;99506.86;108830;1266;37073;-74
2022/12/24 03:00:06;;;;;;;53.50;28.10;;;;;;;6.01;91.52;99505.09;108847;1250;36977;-73
2022/12/24 03:03:06;;;;;;;46.10;25.50;;;;;;;5.99;91.73;99503.61;108746;1255;37054;-74
2022/12/24 03:05:46;;;;;;;49.60;25.10;;;;;;;6.01;91.74;99508.40;108824;1273;37602;-75
2022/12/24 03:08:28;;;;;;;48.40;27.00;;;;;;;6.04;92.00;99511.59;108804;1252;37132;-75
2022/12/24 03:11:05;;;;;;;45.40;24.60;;;;;;;6.03;91.76;99512.48;108869;1271;37163;-74
2022/12/24 03:13:40;;;;;;;45.90;25.70;;;;;;;6.01;91.60;99513.75;108825;1250;37008;-75
2022/12/24 03:16:16;;;;;;;46.90;24.20;;;;;;;5.99;91.58;99516.42;108817;1273;36281;-75
2022/12/24 03:18:52;;;;;;;47.40;27.20;;;;;;;5.97;91.61;99515.12;108834;1273;36788;-77
2022/12/24 03:21:29;;;;;;;48.40;26.00;;;;;;;5.96;91.81;99516.53;108819;1262;37169;-73
2022/12/24 03:24:04;;;;;;;49.70;25.60;;;;;;;5.93;91.69;99520.08;108825;1267;37163;-73
2022/12/24 03:26:38;;;;;;;42.60;23.40;;;;;;;5.93;92.05;99516.45;108802;1273;37131;-73
2022/12/24 03:29:12;;;;;;;35.60;21.90;;;;;;;5.92;91.87;99513.52;108827;1260;37601;-74
2022/12/24 03:31:48;;;;;;;36.60;21.40;;;;;;;5.92;91.86;99515.60;108810;1273;36762;-73
2022/12/24 03:34:22;;;;;;;37.40;21.40;;;;;;;5.92;92.09;99513.55;108781;1256;38511;-75
2022/12/24 03:36:57;;;;;;;36.70;21.70;;;;;;;5.90;92.03;99518.60;108802;1273;38427;-74
2022/12/24 03:39:31;;;;;;;38.40;23.50;;;;;;;5.87;92.00;99517.67;108829;1273;37765;-75
2022/12/24 03:42:05;;;;;;;32.50;20.30;;;;;;;5.87;91.95;99519.38;108780;1264;37858;-76
2022/12/24 03:44:39;;;;;;;36.20;23.50;;;;;;;5.87;91.75;99516.27;108770;1262;37075;-73
2022/12/24 03:47:13;;;;;;;36.20;23.10;;;;;;;5.89;91.96;99519.16;108787;1255;37310;-75
2022/12/24 03:49:47;;;;;;;37.50;22.60;;;;;;;5.91;92.09;99522.02;108849;1273;37359;-74
2022/12/24 03:52:22;;;;;;;32.50;20.40;;;;;;;5.93;92.09;99521.14;108803;1260;36989;-75
2022/12/24 03:54:56;;;;;;;33.30;20.60;;;;;;;5.91;91.82;99525.83;108829;1256;36681;-74
2022/12/24 03:57:30;;;;;;;33.00;21.90;;;;;;;5.94;92.19;99527.48;108836;1273;37128;-72
2022/12/24 04:00:05;;;;;;;32.40;19.30;;;;;;;5.98;92.23;99530.15;108824;1273;37124;-72
2022/12/24 04:02:39;;;;;;;31.20;20.30;;;;;;;5.93;91.89;99527.02;108853;1273;37138;-73
2022/12/24 04:05:17;;;;;;;33.20;20.90;;;;;;;5.90;91.93;99528.81;108824;1256;37000;-74
2022/12/24 04:07:51;;;;;;;31.40;19.60;;;;;;;5.90;92.02;99527.44;108819;1250;36218;-74
2022/12/24 04:10:25;;;;;;;29.10;18.20;;;;;;;5.91;92.19;99527.25;108788;1258;37491;-73
2022/12/24 04:12:59;;;;;;;28.70;17.60;;;;;;;5.92;92.13;99524.27;108788;1263;37150;-75
2022/12/24 04:15:33;;;;;;;28.10;18.40;;;;;;;5.89;92.10;99521.39;108823;1256;37048;-72
2022/12/24 04:18:08;;;;;;;28.10;17.20;;;;;;;5.87;91.98;99523.87;108841;1261;37002;-74
2022/12/24 04:20:42;;;;;;;27.60;17.30;;;;;;;5.84;91.92;99524.00;108808;1273;37069;-74
2022/12/24 04:23:16;;;;;;;27.90;17.20;;;;;;;5.81;92.05;99523.02;108794;1264;37180;-74
2022/12/24 04:25:50;;;;;;;29.30;18.00;;;;;;;5.82;92.21;99515.89;108797;1273;37089;-75
2022/12/24 04:28:24;;;;;;;24.60;16.50;;;;;;;5.82;91.88;99513.33;108754;1264;37106;-75
2022/12/24 04:31:03;;;;;;;24.50;15.40;;;;;;;5.82;92.21;99514.36;108794;1273;36960;-75
2022/12/24 04:33:35;;;;;;;;;;;;;;;5.83;92.37;99518.14;108835;1273;36931;-74
2022/12/24 04:36:11;;;;;;;23.70;15.60;;;;;;;5.78;92.22;99519.87;108835;1268;37670;-76
2022/12/24 04:38:45;;;;;;;23.20;15.00;;;;;;;5.73;92.21;99521.92;108813;1273;37123;-76
2022/12/24 04:41:21;;;;;;;21.40;14.90;;;;;;;5.66;91.97;99527.48;108813;1256;38602;-74
2022/12/24 04:43:55;;;;;;;21.70;14.40;;;;;;;5.63;91.93;99528.48;108833;1262;36666;-74
2022/12/24 04:46:30;;;;;;;20.60;14.70;;;;;;;5.60;92.18;99523.87;108848;1257;36999;-75
2022/12/24 04:49:04;;;;;;;21.40;15.60;;;;;;;5.58;92.21;99524.27;108849;1256;37110;-73
2022/12/24 04:51:38;;;;;;;20.30;15.00;;;;;;;5.59;92.49;99526.86;108667;1255;174797;-73
2022/12/24 04:54:12;;;;;;;19.90;13.90;;;;;;;5.58;92.34;99527.58;108730;1257;174855;-72
2022/12/24 04:56:46;;;;;;;20.50;13.90;;;;;;;5.56;92.38;99532.64;108775;1258;38470;-73
2022/12/24 04:59:20;;;;;;;18.20;13.60;;;;;;;5.57;92.43;99535.58;108784;1263;36806;-71
2022/12/24 05:01:54;;;;;;;17.80;13.10;;;;;;;5.59;92.62;99537.58;108792;1256;37103;-73
2022/12/24 05:04:28;;;;;;;18.60;13.30;;;;;;;5.59;92.36;99539.50;108796;1256;37020;-73
2022/12/24 05:07:02;;;;;;;21.60;14.80;;;;;;;5.56;92.52;99538.02;108823;1274;37041;-75
2022/12/24 05:09:36;;;;;;;20.40;14.10;;;;;;;5.56;92.51;99539.06;108826;1264;36199;-74
2022/12/24 05:12:11;;;;;;;21.50;14.60;;;;;;;5.56;92.69;99537.50;108780;1257;37321;-75
2022/12/24 05:14:45;;;;;;;19.80;14.10;;;;;;;5.58;92.60;99540.90;108784;1251;37151;-74
2022/12/24 05:17:19;;;;;;;24.80;16.10;;;;;;;5.59;92.54;99542.41;108790;1260;37076;-75
2022/12/24 05:19:54;;;;;;;24.70;15.90;;;;;;;5.62;92.80;99541.29;108812;1253;38214;-73
2022/12/24 05:28:11;;;;;;;20.50;12.60;;;;;;;5.60;92.51;99540.49;108806;1260;38295;-74
2022/12/24 05:30:45;;;;;;;20.10;13.50;;;;;;;5.56;92.15;99536.80;108824;1273;37769;-75
2022/12/24 05:33:19;;;;;;;20.30;13.40;;;;;;;5.52;92.11;99539.17;108823;1263;36268;-75
2022/12/24 05:35:54;;;;;;;21.60;14.00;;;;;;;5.49;92.32;99536.51;108881;1273;36264;-74
2022/12/24 05:38:31;;;;;;;23.30;13.60;;;;;;;5.45;92.20;99538.35;108839;1273;37257;-74
2022/12/24 05:41:05;;;;;;;20.10;13.10;;;;;;;5.43;92.39;99540.65;108836;1263;37108;-74
2022/12/24 05:43:40;;;;;;;20.20;13.60;;;;;;;5.39;92.43;99547.68;108770;1262;37080;-74
2022/12/24 05:46:15;;;;;;;21.20;12.60;;;;;;;5.41;92.60;99555.95;108838;1274;36337;-75
2022/12/24 05:48:49;;;;;;;21.60;13.60;;;;;;;5.38;92.48;99555.49;108810;1252;37099;-73
2022/12/24 05:51:27;;;;;;;25.60;15.40;;;;;;;5.38;92.71;99558.80;108758;1266;37145;-75
2022/12/24 05:54:01;;;;;;;21.80;13.80;;;;;;;5.38;92.83;99559.82;108811;1260;37283;-75
2022/12/24 05:56:38;;;;;;;20.70;12.50;;;;;;;5.38;92.73;99560.19;108779;1264;38869;-74
2022/12/24 05:59:12;;;;;;;19.40;12.30;;;;;;;5.38;92.58;99556.37;108804;1269;36852;-74
2022/12/24 06:01:47;;;;;;;20.30;13.20;;;;;;;5.37;92.84;99557.08;108799;1251;36894;-76
2022/12/24 06:04:21;;;;;;;20.20;12.40;;;;;;;5.35;92.74;99559.73;108812;1274;37490;-75
2022/12/24 06:06:55;;;;;;;20.70;13.40;;;;;;;5.34;92.82;99558.59;108838;1256;36668;-74
2022/12/24 06:09:29;;;;;;;19.70;12.80;;;;;;;5.33;92.83;99565.36;108771;1257;37049;-74
2022/12/24 06:12:03;;;;;;;18.90;11.80;;;;;;;5.33;92.90;99565.88;108873;1274;37197;-73
2022/12/24 06:14:40;;;;;;;20.90;11.90;;;;;;;5.36;92.96;99564.91;108864;1257;37146;-71
2022/12/24 06:17:14;;;;;;;23.40;13.40;;;;;;;5.42;93.38;99566.47;108822;1265;37051;-73
2022/12/24 06:19:51;;;;;;;21.90;13.70;;;;;;;5.44;92.73;99566.93;108837;1274;36465;-72
2022/12/24 06:22:26;;;;;;;22.00;14.10;;;;;;;5.42;92.63;99570.11;108879;1263;38254;-75
2022/12/24 06:25:00;;;;;;;22.00;13.10;;;;;;;5.37;92.66;99571.27;108808;1271;36956;-74
2022/12/24 06:27:34;;;;;;;22.60;13.90;;;;;;;5.33;92.36;99567.59;108660;1273;174905;-73
2022/12/24 06:30:11;;;;;;;21.70;13.10;;;;;;;5.31;92.59;99572.33;108817;1274;37092;-72
2022/12/24 06:32:45;;;;;;;23.00;14.20;;;;;;;5.31;92.60;99571.27;108807;1274;38143;-74
2022/12/24 06:35:19;;;;;;;24.40;14.10;;;;;;;5.33;92.80;99580.23;108822;1251;38836;-74
2022/12/24 06:37:53;;;;;;;21.90;13.50;;;;;;;5.34;92.75;99580.20;108822;1273;36408;-74
2022/12/24 06:40:28;;;;;;;24.90;13.90;;;;;;;5.29;92.54;99589.67;108833;1251;37135;-76
2022/12/24 06:43:03;;;;;;;23.00;12.80;;;;;;;5.27;92.64;99590.61;108826;1256;37025;-74
2022/12/24 06:45:37;;;;;;;22.80;12.50;;;;;;;5.22;92.51;99589.19;108815;1251;36983;-73
2022/12/24 06:48:14;;;;;;;20.90;13.40;;;;;;;5.25;92.86;99594.63;108819;1273;37127;-74
2022/12/24 06:50:49;;;;;;;22.50;13.50;;;;;;;5.28;93.10;99594.38;108848;1266;36470;-73
2022/12/24 06:53:23;;;;;;;24.60;14.70;;;;;;;5.29;92.88;99591.92;108830;1250;37052;-73
2022/12/24 06:56:02;;;;;;;25.00;14.20;;;;;;;5.27;92.94;99592.70;108875;1261;37045;-74
2022/12/24 06:58:37;;;;;;;23.40;13.90;;;;;;;5.22;92.59;99594.04;108855;1272;36958;-74
2022/12/24 07:01:13;;;;;;;22.30;13.50;;;;;;;5.22;93.14;99594.56;108852;1273;37005;-74
2022/12/24 07:03:47;;;;;;;22.40;13.40;;;;;;;5.24;92.84;99595.53;108873;1251;37197;-75
2022/12/24 07:06:26;;;;;;;25.70;15.20;;;;;;;5.27;92.96;99601.84;108895;1256;37080;-75
2022/12/24 07:09:01;;;;;;;26.20;15.50;;;;;;;5.27;93.05;99604.27;108867;1256;37203;-75
2022/12/24 07:11:35;;;;;;;25.20;14.50;;;;;;;5.25;92.88;99609.52;108799;1273;37586;-75
2022/12/24 07:14:10;;;;;;;22.30;14.50;;;;;;;5.24;92.82;99612.49;108847;1262;37333;-76
2022/12/24 07:16:44;;;;;;;20.40;13.20;;;;;;;5.26;92.79;99612.77;108842;1256;37149;-75
2022/12/24 07:19:18;;;;;;;24.40;15.30;;;;;;;5.24;92.62;99616.27;108816;1256;37068;-75
2022/12/24 07:21:52;;;;;;;27.80;16.50;;;;;;;5.22;92.54;99618.41;108781;1265;36166;-73
2022/12/24 07:24:27;;;;;;;26.30;16.60;;;;;;;5.25;92.97;99620.93;108706;1264;174905;-74
2022/12/24 07:27:01;;;;;;;28.50;16.50;;;;;;;5.24;92.81;99624.92;108820;1273;37110;-76
2022/12/24 07:29:35;;;;;;;25.90;15.40;;;;;;;5.25;93.14;99629.05;108812;1268;37324;-75
2022/12/24 07:32:09;;;;;;;28.90;16.80;;;;;;;5.26;92.86;99631.27;108789;1273;37139;-74
2022/12/24 07:34:44;;;;;;;28.00;17.90;;;;;;;5.27;92.87;99634.35;108777;1267;35984;-73
2022/12/24 07:37:18;;;;;;;27.30;16.60;;;;;;;5.30;93.10;99640.67;108782;1273;37042;-75
2022/12/24 07:39:52;;;;;;;29.10;16.20;;;;;;;5.29;92.87;99644.16;108818;1258;37406;-73
2022/12/24 07:42:27;;;;;;;26.50;14.50;;;;;;;5.28;92.96;99646.95;108796;1267;37102;-73
2022/12/24 07:45:02;;;;;;;25.30;15.00;;;;;;;5.24;92.32;99647.75;108704;1250;174916;-73
2022/12/24 07:47:36;;;;;;;22.60;14.40;;;;;;;5.23;92.59;99652.45;108869;1256;37084;-73
2022/12/24 07:50:12;;;;;;;24.70;14.40;;;;;;;5.25;92.82;99651.19;108875;1273;37431;-74
2022/12/24 07:52:46;;;;;;;24.50;14.10;;;;;;;5.23;92.87;99652.61;108892;1273;36542;-73
2022/12/24 07:55:21;;;;;;;22.30;13.80;;;;;;;5.19;92.54;99654.13;108879;1262;36958;-73
2022/12/24 07:57:55;;;;;;;22.30;13.50;;;;;;;5.20;92.58;99653.73;108885;1263;37047;-78
2022/12/24 08:00:34;;;;;;;21.40;13.70;;;;;;;5.18;92.56;99656.05;108793;1273;188027;-78
2022/12/24 08:03:09;;;;;;;25.60;14.60;;;;;;;5.22;92.72;99660.25;108895;1256;37274;-80
2022/12/24 08:05:44;;;;;;;18.70;12.50;;;;;;;5.26;92.90;99660.66;108827;1273;37258;-75
2022/12/24 08:08:18;;;;;;;21.40;13.20;;;;;;;5.28;92.82;99664.95;108834;1270;36951;-74
2022/12/24 08:10:52;;;;;;;21.10;13.00;;;;;;;5.27;92.77;99664.97;108742;1257;36839;-76
2022/12/24 08:13:26;;;;;;;20.50;11.80;;;;;;;5.25;92.86;99669.32;108793;1273;37135;-76
2022/12/24 08:16:01;;;;;;;19.20;12.50;;;;;;;5.26;92.64;99666.72;108815;1262;36166;-76
2022/12/24 08:18:35;;;;;;;19.50;12.10;;;;;;;5.25;92.80;99663.80;108828;1273;36654;-76
2022/12/24 08:21:12;;;;;;;18.40;12.20;;;;;;;5.24;92.51;99668.86;108802;1265;37061;-77
2022/12/24 08:23:47;;;;;;;19.50;11.90;;;;;;;5.22;92.56;99668.21;108782;1273;37323;-76
2022/12/24 08:26:21;;;;;;;17.70;11.50;;;;;;;5.21;92.53;99681.22;108863;1256;37632;-73
2022/12/24 08:28:56;;;;;;;16.90;11.60;;;;;;;5.22;92.72;99681.52;108785;1254;37321;-72
2022/12/24 08:31:35;;;;;;;17.40;11.90;;;;;;;5.26;92.93;99677.97;108820;1273;38291;-74
2022/12/24 08:34:08;;;;;;;;;;;;;;;5.28;92.70;99681.36;108695;1273;172746;-74
2022/12/24 08:36:42;;;;;;;19.70;12.30;;;;;;;5.30;92.98;99684.77;108875;1254;36026;-75
2022/12/24 08:39:18;;;;;;;17.20;10.90;;;;;;;5.30;92.70;99690.27;108873;1273;37191;-73
2022/12/24 08:41:52;;;;;;;18.60;11.50;;;;;;;5.24;92.25;99698.58;108835;1273;37349;-72
2022/12/24 08:44:27;;;;;;;18.20;11.50;;;;;;;5.20;92.48;99700.95;108842;1273;38612;-73
2022/12/24 08:47:02;;;;;;;19.60;11.80;;;;;;;5.20;92.57;99699.03;108799;1273;37074;-74
2022/12/24 08:49:36;;;;;;;18.20;12.20;;;;;;;5.23;92.80;99702.09;108890;1255;38356;-72
2022/12/24 08:52:11;;;;;;;20.60;12.40;;;;;;;5.26;92.97;99705.11;108800;1250;38529;-72
2022/12/24 08:54:45;;;;;;;21.30;13.10;;;;;;;5.31;93.13;99705.32;108849;1251;38721;-73
2022/12/24 08:57:20;;;;;;;18.00;12.10;;;;;;;5.36;93.25;99710.36;108835;1251;37316;-75
2022/12/24 08:59:54;;;;;;;19.70;13.10;;;;;;;5.42;92.83;99706.41;108787;1263;35970;-74
2022/12/24 09:02:28;;;;;;;21.00;13.80;;;;;;;5.47;92.68;99708.52;108801;1273;37053;-75
2022/12/24 09:05:02;;;;;;;21.40;13.50;;;;;;;5.46;92.54;99707.84;108810;1264;37341;-73
2022/12/24 09:07:37;;;;;;;22.00;13.80;;;;;;;5.44;92.21;99712.23;108816;1273;36204;-73
2022/12/24 09:10:13;;;;;;;21.40;13.20;;;;;;;5.41;92.41;99713.33;108805;1254;37014;-73
2022/12/24 09:12:47;;;;;;;20.40;12.50;;;;;;;5.46;92.77;99713.71;108818;1273;37234;-74
2022/12/24 09:15:21;;;;;;;20.00;13.60;;;;;;;5.51;92.83;99715.65;108884;1273;36321;-72
2022/12/24 09:17:56;;;;;;;19.80;13.10;;;;;;;5.53;92.32;99719.94;108839;1273;38319;-74
2022/12/24 09:20:30;;;;;;;20.30;13.60;;;;;;;5.55;92.44;99724.89;108834;1254;36822;-74
2022/12/24 09:23:04;;;;;;;18.60;12.80;;;;;;;5.55;92.33;99728.16;108866;1271;37071;-74
2022/12/24 09:25:42;;;;;;;21.00;13.40;;;;;;;5.56;92.38;99729.20;108815;1250;36967;-70
2022/12/24 09:28:16;;;;;;;19.00;12.80;;;;;;;5.57;92.39;99730.89;108790;1256;37046;-70
2022/12/24 09:30:59;;;;;;;20.50;13.50;;;;;;;5.57;92.15;99733.67;108825;1251;37264;-70
2022/12/24 09:33:34;;;;;;;20.90;14.10;;;;;;;5.58;92.13;99741.09;108840;1274;37132;-72
2022/12/24 09:36:09;;;;;;;21.30;13.20;;;;;;;5.58;92.00;99739.52;108835;1275;37211;-72
2022/12/24 09:38:43;;;;;;;20.30;13.80;;;;;;;5.52;91.66;99740.73;108822;1264;37278;-72
2022/12/24 09:41:37;;;;;;;21.50;13.40;;;;;;;5.48;91.68;99743.42;108808;1274;38826;-72
2022/12/24 09:44:32;;;;;;;21.00;13.10;;;;;;;5.49;92.34;99745.84;108413;1258;586508;-71
2022/12/24 09:47:11;;;;;;;23.80;14.20;;;;;;;5.53;92.48;99752.30;108806;1260;36945;-71
2022/12/24 09:49:49;;;;;;;22.20;15.00;;;;;;;5.56;91.91;99753.08;108852;1274;36003;-69
2022/12/24 09:52:29;;;;;;;23.70;15.10;;;;;;;5.56;91.77;99752.38;108781;1256;37129;-69
2022/12/24 09:55:15;;;;;;;24.00;15.00;;;;;;;5.57;92.09;99748.20;108824;1275;36388;-71
2022/12/24 09:57:49;;;;;;;23.90;15.00;;;;;;;5.61;92.22;99749.48;108802;1273;38358;-70
2022/12/24 10:00:26;;;;;;;22.50;14.40;;;;;;;5.60;92.08;99754.67;108872;1251;38602;-71
2022/12/24 10:03:00;;;;;;;24.00;14.70;;;;;;;5.61;91.97;99759.69;108787;1274;37091;-71
2022/12/24 10:05:40;;;;;;;25.10;15.10;;;;;;;5.58;91.60;99767.38;108887;1274;37108;-70
2022/12/24 10:08:22;;;;;;;24.60;14.90;;;;;;;5.50;91.28;99768.48;108760;1264;172771;-70
2022/12/24 10:10:58;;;;;;;24.70;15.80;;;;;;;5.50;91.91;99777.78;108894;1274;37433;-71
2022/12/24 10:13:43;;;;;;;22.90;14.80;;;;;;;5.51;91.95;99774.83;108876;1264;36983;-72
2022/12/24 10:16:20;;;;;;;26.90;16.60;;;;;;;5.53;91.95;99772.36;108869;1251;37079;-71
2022/12/24 10:19:03;;;;;;;23.60;15.50;;;;;;;5.54;91.76;99774.23;108850;1274;38756;-72
2022/12/24 10:21:44;;;;;;;23.20;15.00;;;;;;;5.56;91.92;99776.77;108819;1274;37187;-69
2022/12/24 10:24:21;;;;;;;24.20;15.60;;;;;;;5.56;91.80;99777.96;108896;1251;37093;-73
2022/12/24 10:26:59;;;;;;;26.00;15.60;;;;;;;5.60;91.90;99782.38;108864;1251;36980;-70
2022/12/24 10:29:34;;;;;;;27.20;16.10;;;;;;;5.65;92.15;99786.21;108829;1267;37202;-73
2022/12/24 10:32:18;;;;;;;24.00;15.40;;;;;;;5.66;91.73;99793.27;108794;1273;38978;-73
2022/12/24 10:34:57;;;;;;;24.20;15.70;;;;;;;5.63;91.40;99792.84;108792;1273;37143;-70
2022/12/24 10:37:32;;;;;;;22.40;15.60;;;;;;;5.62;91.29;99798.58;108819;1273;36956;-70
2022/12/24 10:40:11;;;;;;;24.00;15.90;;;;;;;5.58;91.22;99798.85;108821;1250;37381;-73
2022/12/24 10:42:44;;;;;;;;;;;;;;;5.56;91.25;99805.14;108840;1254;37001;-73
2022/12/24 10:45:21;;;;;;;25.60;16.70;;;;;;;5.52;91.45;99801.45;108839;1262;37230;-72
2022/12/24 10:47:57;;;;;;;24.90;16.10;;;;;;;5.49;91.46;99801.18;108805;1260;37124;-70
2022/12/24 10:50:36;;;;;;;23.20;15.20;;;;;;;5.51;91.60;99805.27;108845;1254;36966;-72
2022/12/24 10:53:20;;;;;;;23.20;16.10;;;;;;;5.54;91.31;99808.66;108820;1273;37346;-73
2022/12/24 10:56:02;;;;;;;25.40;17.50;;;;;;;5.55;91.37;99815.20;108870;1251;37149;-70
2022/12/24 10:58:38;;;;;;;27.80;16.60;;;;;;;5.56;91.25;99817.62;108837;1273;36328;-69
2022/12/24 11:01:17;;;;;;;28.30;18.10;;;;;;;5.53;91.12;99815.95;108837;1254;36977;-71
2022/12/24 11:04:04;;;;;;;27.70;17.40;;;;;;;5.54;91.60;99816.45;108820;1251;37602;-72
2022/12/24 11:06:42;;;;;;;28.60;17.90;;;;;;;5.57;91.60;99818.95;108824;1273;37023;-70
2022/12/24 11:09:25;;;;;;;26.10;17.20;;;;;;;5.59;91.31;99818.75;108839;1261;36894;-71
2022/12/24 11:12:06;;;;;;;27.20;18.70;;;;;;;5.60;91.39;99821.46;108832;1273;36532;-72
2022/12/24 11:14:45;;;;;;;31.40;19.30;;;;;;;5.63;91.53;99823.81;108810;1251;174864;-73
2022/12/24 11:17:27;;;;;;;31.70;20.70;;;;;;;5.63;91.50;99823.83;108820;1268;40307;-73
2022/12/24 11:19:59;;;;;;;;;;;;;;;5.61;91.03;99826.80;108840;1254;37157;-73
2022/12/24 11:22:36;;;;;;;30.70;17.80;;;;;;;5.57;91.16;99832.80;108815;1254;37127;-74
2022/12/24 11:25:26;;;;;;;30.20;18.50;;;;;;;5.54;91.12;99834.77;108838;1251;37096;-73
2022/12/24 11:28:14;;;;;;;27.20;18.20;;;;;;;5.53;91.04;99836.71;108778;1259;37295;-72
2022/12/24 11:31:14;;;;;;;26.30;17.20;;;;;;;5.51;90.99;99842.84;108836;1260;37018;-72
2022/12/24 11:33:53;;;;;;;31.60;19.10;;;;;;;5.45;90.66;99845.39;108863;1273;37267;-69
2022/12/24 11:36:27;;;;;;;28.80;18.10;;;;;;;5.44;91.22;99843.16;108165;1262;923911;-68
2022/12/24 11:39:01;;;;;;;27.50;17.70;;;;;;;5.46;91.03;99849.86;108860;1264;36326;-71
2022/12/24 11:41:41;;;;;;;26.30;16.50;;;;;;;5.49;91.36;99849.29;108785;1273;37431;-74
2022/12/24 11:44:15;;;;;;;29.70;18.30;;;;;;;5.51;91.06;99857.86;108805;1273;37102;-73
2022/12/24 11:46:55;;;;;;;27.90;18.80;;;;;;;5.52;91.12;99858.36;108818;1273;37009;-71
2022/12/24 11:49:30;;;;;;;28.40;17.60;;;;;;;5.52;90.93;99862.17;108847;1251;37114;-71
2022/12/24 11:52:25;;;;;;;27.60;17.40;;;;;;;5.51;90.96;99868.08;108807;1254;37131;-71
2022/12/24 11:55:21;;;;;;;26.20;16.50;;;;;;;5.53;91.15;99869.77;108833;1273;37037;-73
2022/12/24 11:58:00;;;;;;;27.30;18.00;;;;;;;5.51;90.93;99873.78;108797;1257;37240;-73
2022/12/24 12:00:35;;;;;;;27.20;17.70;;;;;;;5.56;91.03;99874.70;108800;1254;37096;-73
2022/12/24 12:03:15;;;;;;;31.50;19.90;;;;;;;5.59;91.06;99877.91;108821;1264;36996;-71
2022/12/24 12:05:49;;;;;;;30.00;19.80;;;;;;;5.61;91.00;99880.45;108846;1257;36772;-74
2022/12/24 12:08:25;;;;;;;31.20;19.40;;;;;;;5.64;91.15;99885.22;108817;1273;37085;-73